Teigen, MT (59084)

11:07 PM MDT on August 31, 2015 (GMT -0600)
Lewistown Municipal | | Change Station
CLOSE
Current Station
Airport
Location: Lewistown,
Elevation: 4167 ft
Nearby Weather Stations

Elev 4167 ft 47.05 °N, 109.47 °W | Updated 13 minutes ago

Partly Cloudy
Partly Cloudy
56 °F
Feels Like 56 °F
N
6
Wind Variable Wind from SSE

Today
High -- | Low -- °F
--% Chance of Precip.
Yesterday
High -- | Low -- °F
Precip. -- in
6:32 AM 7:56 PM
Waning Gibbous, 91% visible
Pressure 29.86 in
Visibility 10.0 miles
Clouds Scattered Clouds 11000 ft
Dew Point 40 °F
Humidity 55%
Rainfall 0.00 in
Snow Depth Not available.
UV 0 out of 12
Pollen 8.80 out of 12
Air Quality Not available.
Flu Activity Not available.
METAR KLWT 010454Z AUTO 15005KT 10SM SCT110 13/04 A2993 RMK AO2 SLP109 T01330044 TSNO
Pressure 29.86 in
Visibility 10.0 miles
Clouds Scattered Clouds 11000 ft
Dew Point 40 °F
Humidity 55%
Rainfall 0.00 in
Snow Depth Not available.
UV 0 out of 12
Pollen 8.80 out of 12
Air Quality Not available.
Flu Activity Not available.
METAR KLWT 010454Z AUTO 15005KT 10SM SCT110 13/04 A2993 RMK AO2 SLP109 T01330044 TSNO

10-Day Weather Forecast

×

Almanac

Astronomy

Aug. 31, 2015 Rise Set
Actual Time
Civil Twilight
Nautical Twilight
Astronomical Twilight
Moon
Length of Visible Light
Length of Day
Tomorrow will be .
, % of the Moon is Illuminated

Today's Extremes

State Highs State Lows

Community

WunderPhotos

Upload Photos

1,851,478 photos uploaded!

WunderBlogs® & News

Nearby

Air Quality

  Air Quality AQ Index Pollutant
Not available.

Snow Depth

Station Depth Elevation

Earthquake Activity

City Distance Mag. Time & Date
Minimum magnitude displayed is 2.5.

Coastal Water Temperatures

Place Temperature

Stations

Nearby Weather Stations

Station Location Temp. Windchill Dew Point Humidity Wind Precip. Elev Updated Type